Colchester, United Kingdom
Current Conditions -  °F | °C
As of 6:50 PM on Friday 21 Nov 2014 (Local Time) from EGUW Reporting Station
Haze Haze  
Wind Chill:   Ceiling: 5000
Heat Index:   Visibility: 4mi
Dew Point:   Wind: 12mph
Humidity: 100%   Direction: 120°ESE
Pressure: 29.97"   Gusts: NA
Location:  51.89°N, 0.9°E
Report Text: EGUW 211850Z AUTO 12010KT 6000 BR FEW007/// OVC050/// 08/08 Q1015 RERA
Loading
Personal Weather Stations






























Interactive Weather Map New forecast layout! Learn more

10-Day Weather Forecast

Advertisements
Track Severe Weather on mobile